Pittsfield, NH

4:58 PM EDT on May 25, 2017 (GMT -0400)
Barnstead | | Change Station

Elev 886 ft 43.30 °N, 71.22 °W | Updated 18 seconds ago

Overcast
Overcast
48.6 °F
Feels Like 44 °F
N
10.0
Wind Variable Wind from East
Gusts 21.0 mph

Today
High -- | Low -- °F
--% Chance of Precip.
Yesterday
High -- | Low -- °F
Precip. -- in
Pressure 29.79 in
Visibility 3.0 miles
Clouds Overcast 1400 ft
Windchill 44 °F
Dew Point 48 °F
Humidity 98%
Rainfall 0.00 in
Snow Depth Not available.
5:12 AM 8:13 PM
New Moon, 0% visible
METAR KCON 252051Z AUTO 08010G17KT 3SM BR OVC014 11/09 A2978 RMK AO2 RAE05 SLP087 P0000 60001 T01110094 56011
Pressure 29.79 in
Visibility 3.0 miles
Clouds Overcast 1400 ft
Windchill 44 °F
Dew Point 48 °F
Humidity 98%
Rainfall 0.00 in
Snow Depth Not available.
5:12 AM 8:13 PM
New Moon, 0% visible
METAR KCON 252051Z AUTO 08010G17KT 3SM BR OVC014 11/09 A2978 RMK AO2 RAE05 SLP087 P0000 60001 T01110094 56011

Get Severe Weather Alerts

Thanks for signing up!

Be on the lookout for a verification email in your inbox.

You'll start receiving the daily forecast at 6 AM.

×

10-Day Weather Forecast

Almanac

Astronomy

May. 25, 2017 Rise Set
Actual Time
Civil Twilight
Nautical Twilight
Astronomical Twilight
Moon
Length of Visible Light
Length of Day
Tomorrow will be .
, % of the Moon is Illuminated

Today's Extremes

State Highs State Lows

Community

WunderPhotos

Category 6

Welcome to Category 6. This is the collective home for Weather Underground's featured writeups by Dr. Jeff Masters (right), Bob Henson (left), Chris Burt, and other regular contributors.

Nearby

Air Quality

  Air Quality AQ Index Pollutant
Not available.

Snow Depth

Station Depth Elevation

Earthquake Activity

City Distance Mag. Time & Date
Minimum magnitude displayed is 2.5.

Coastal Water Temperatures

Place Temperature

Stations

Nearby Weather Stations

Station Location Temp. Windchill Dew Point Humidity Wind Precip. Elev Updated Type
                   

Watches & Warnings

There are currently no watches in effect.